Time;durP1;ratioP1;P1;durP2;ratioP2;P2;SDS_P1;SDS_P2;PMS_P1;PMS_P2;Temp;Humidity;BMP_temperature;BMP_pressure;BME280_temperature;BME280_humidity;BME280_pressure;Samples;Min_cycle;Max_cycle;Signal;HPM_P1;HPM_P2
2021/06/10 00:00:38;;;;;;;1.10;0.93;;;;;;;17.03;54.92;101186.59;5026917;28;20596;-74
2021/06/10 00:03:04;;;;;;;1.10;0.70;;;;;;;16.97;55.16;101187.88;5042315;28;20051;-74
2021/06/10 00:05:30;;;;;;;1.70;0.88;;;;;;;16.99;55.35;101185.56;5026045;28;20029;-74
2021/06/10 00:07:55;;;;;;;1.25;0.90;;;;;;;16.96;55.31;101180.59;5041056;28;20395;-74
2021/06/10 00:10:22;;;;;;;1.45;0.93;;;;;;;16.91;55.67;101190.00;5030756;28;20432;-74
2021/06/10 00:12:47;;;;;;;1.10;0.73;;;;;;;16.92;55.98;101185.19;5051834;28;20045;-74
2021/06/10 00:15:16;;;;;;;1.92;1.00;;;;;;;16.87;55.70;101188.13;5044276;28;20079;-74
2021/06/10 00:17:41;;;;;;;1.23;0.88;;;;;;;16.83;55.85;101187.13;5026592;28;20034;-74
2021/06/10 00:20:10;;;;;;;1.88;0.88;;;;;;;16.81;55.92;101173.41;5043252;28;20033;-74
2021/06/10 00:22:35;;;;;;;2.17;0.75;;;;;;;16.85;55.92;101177.22;5039979;28;20056;-74
2021/06/10 00:25:01;;;;;;;0.60;0.60;;;;;;;16.81;56.08;101172.59;5047390;28;20104;-74
2021/06/10 00:27:26;;;;;;;1.10;0.80;;;;;;;16.77;56.28;101180.81;5048441;28;20035;-74
2021/06/10 00:29:52;;;;;;;0.77;0.73;;;;;;;16.74;56.45;101168.25;5041222;28;20044;-74
2021/06/10 00:32:17;;;;;;;1.00;0.75;;;;;;;16.74;56.33;101159.81;5050313;28;20030;-74
2021/06/10 00:34:43;;;;;;;2.70;0.80;;;;;;;16.68;56.61;101166.69;5045247;28;20036;-74
2021/06/10 00:37:09;;;;;;;0.70;0.70;;;;;;;16.66;56.70;101166.19;5037207;28;20040;-74
2021/06/10 00:39:35;;;;;;;2.65;0.90;;;;;;;16.63;57.20;101166.84;5049566;28;20034;-74
2021/06/10 00:42:00;;;;;;;0.80;0.77;;;;;;;16.58;56.92;101161.34;5040287;28;20059;-74
2021/06/10 00:44:25;;;;;;;0.70;0.70;;;;;;;16.57;57.34;101164.47;4995133;28;20029;-74
2021/06/10 00:46:51;;;;;;;1.05;0.77;;;;;;;16.53;57.11;101164.28;5045379;28;20029;-74
2021/06/10 00:49:16;;;;;;;0.80;0.80;;;;;;;16.55;57.33;101164.81;5040435;28;20048;-74
2021/06/10 00:51:42;;;;;;;1.27;0.90;;;;;;;16.47;57.41;101165.56;5028367;28;20061;-74
2021/06/10 00:54:08;;;;;;;2.50;1.10;;;;;;;16.47;57.77;101165.56;5044952;28;20037;-74
2021/06/10 00:56:34;;;;;;;1.48;0.80;;;;;;;16.46;57.71;101167.50;5030892;28;20033;-74
2021/06/10 00:59:00;;;;;;;1.42;0.80;;;;;;;16.50;58.08;101162.13;5028099;28;20041;-74
2021/06/10 01:01:25;;;;;;;1.35;0.80;;;;;;;16.47;58.07;101162.75;5041796;28;20033;-74
2021/06/10 01:03:51;;;;;;;2.65;0.88;;;;;;;16.44;58.16;101164.22;5027184;28;20473;-74
2021/06/10 01:06:37;;;;;;;1.63;0.80;;;;;;;16.42;58.27;101160.91;5028576;28;20029;-74
2021/06/10 01:09:12;;;;;;;3.33;0.88;;;;;;;16.43;58.39;101150.50;5041820;28;20143;-74
2021/06/10 01:11:48;;;;;;;3.03;1.00;;;;;;;16.44;58.69;101150.19;5037305;28;20477;-74
2021/06/10 01:14:30;;;;;;;1.23;0.98;;;;;;;16.42;58.46;101154.47;5022049;28;20088;-74
2021/06/10 01:16:55;;;;;;;1.02;0.88;;;;;;;16.41;58.81;101147.19;5030595;28;20052;-74
2021/06/10 01:19:39;;;;;;;0.80;0.80;;;;;;;16.41;59.05;101138.78;5045713;28;20533;-74
2021/06/10 01:22:07;;;;;;;1.38;0.90;;;;;;;16.41;58.98;101147.19;5043268;28;20055;-74
2021/06/10 01:24:43;;;;;;;1.00;0.90;;;;;;;16.42;59.03;101141.28;5008189;28;20021;-74
2021/06/10 01:27:28;;;;;;;1.65;0.80;;;;;;;16.41;59.08;101135.97;5021181;28;20029;-74
2021/06/10 01:30:19;;;;;;;1.00;0.90;;;;;;;16.42;59.09;101137.66;5013470;28;20072;-73
2021/06/10 01:32:51;;;;;;;3.22;1.00;;;;;;;16.42;59.51;101144.06;5045047;28;20037;-74
2021/06/10 01:35:16;;;;;;;1.40;0.82;;;;;;;16.43;59.66;101139.28;5006237;28;20037;-74
2021/06/10 01:37:42;;;;;;;2.65;0.90;;;;;;;16.41;60.02;101131.22;5015000;28;20021;-74
2021/06/10 01:40:08;;;;;;;1.48;1.08;;;;;;;16.41;59.72;101135.97;5012649;28;20063;-74
2021/06/10 01:42:39;;;;;;;1.98;1.13;;;;;;;16.42;59.52;101132.03;5029463;28;20030;-74
2021/06/10 01:45:06;;;;;;;1.30;0.90;;;;;;;16.37;59.87;101124.56;5029529;28;20037;-73
2021/06/10 01:47:32;;;;;;;1.05;0.90;;;;;;;16.37;60.12;101130.19;5037805;28;20057;-74
2021/06/10 01:49:57;;;;;;;1.15;1.05;;;;;;;16.39;59.77;101129.88;5035256;28;20033;-74
2021/06/10 01:52:23;;;;;;;1.42;0.90;;;;;;;16.36;60.18;101124.91;5026536;28;20045;-74
2021/06/10 01:54:49;;;;;;;1.52;1.00;;;;;;;16.36;60.71;101125.72;5036091;28;20040;-74
2021/06/10 01:57:14;;;;;;;1.67;0.90;;;;;;;16.39;60.70;101121.47;5023431;28;20033;-74
2021/06/10 01:59:40;;;;;;;1.15;1.05;;;;;;;16.36;60.20;101124.91;5011491;28;20032;-73
2021/06/10 02:02:05;;;;;;;2.25;1.48;;;;;;;16.35;60.78;101126.88;5043835;28;20038;-73
2021/06/10 02:04:31;;;;;;;1.52;1.20;;;;;;;16.34;60.13;101128.03;5028776;28;20040;-73
2021/06/10 02:06:56;;;;;;;1.35;0.90;;;;;;;16.34;60.52;101133.63;5009792;28;20126;-74
2021/06/10 02:09:22;;;;;;;1.42;1.00;;;;;;;16.37;60.50;101132.16;5009906;28;20029;-73
2021/06/10 02:11:48;;;;;;;1.77;1.10;;;;;;;16.34;60.21;101118.78;5007630;28;20084;-74
2021/06/10 02:14:14;;;;;;;1.65;1.17;;;;;;;16.27;60.90;101120.06;5019910;28;20033;-73
2021/06/10 02:16:40;;;;;;;1.35;1.20;;;;;;;16.26;61.31;101111.97;5032495;28;20036;-73
2021/06/10 02:19:05;;;;;;;2.05;1.20;;;;;;;16.22;60.82;101108.97;5008410;28;20025;-74
2021/06/10 02:21:31;;;;;;;2.63;1.13;;;;;;;16.24;61.12;101103.03;5017362;28;20029;-74
2021/06/10 02:23:57;;;;;;;2.88;1.10;;;;;;;16.19;61.28;101115.22;5008259;28;20046;-74
2021/06/10 02:26:23;;;;;;;1.23;1.02;;;;;;;16.15;61.38;101116.97;5039754;28;20053;-74
2021/06/10 02:28:48;;;;;;;1.50;1.38;;;;;;;16.15;61.53;101119.78;5051557;28;20040;-74
2021/06/10 02:31:14;;;;;;;1.65;1.20;;;;;;;16.16;61.46;101115.00;5045362;28;20025;-74
2021/06/10 02:33:42;;;;;;;2.55;1.33;;;;;;;16.08;62.01;101113.81;5031898;28;20377;-74
2021/06/10 02:36:08;;;;;;;1.00;0.90;;;;;;;16.09;61.60;101113.47;5014497;28;20116;-74
2021/06/10 02:38:33;;;;;;;1.50;1.20;;;;;;;16.09;62.25;101110.66;5025173;28;20112;-74
2021/06/10 02:40:59;;;;;;;1.73;1.38;;;;;;;16.08;62.09;101116.59;5010739;28;20033;-74
2021/06/10 02:43:24;;;;;;;2.05;1.20;;;;;;;16.06;62.10;101119.72;5011739;28;20096;-74
2021/06/10 02:45:50;;;;;;;1.50;1.20;;;;;;;16.06;62.77;101113.28;5002569;28;20531;-73
2021/06/10 02:48:15;;;;;;;2.42;1.42;;;;;;;16.06;62.78;101107.69;5010401;28;20424;-74
2021/06/10 02:50:41;;;;;;;2.20;1.20;;;;;;;16.05;63.02;101104.06;5022007;28;20036;-74
2021/06/10 02:53:14;;;;;;;1.65;1.13;;;;;;;16.00;63.38;101098.56;5003734;28;20050;-74
2021/06/10 02:55:40;;;;;;;2.10;1.42;;;;;;;15.99;62.68;101094.13;5009129;28;20029;-74
2021/06/10 02:58:06;;;;;;;1.30;1.17;;;;;;;15.98;62.97;101100.03;4988152;28;20493;-74
2021/06/10 03:00:33;;;;;;;2.70;1.45;;;;;;;15.97;63.22;101095.59;5003157;28;20553;-74
2021/06/10 03:03:01;;;;;;;2.97;1.80;;;;;;;15.95;63.42;101092.25;5026394;28;20104;-74
2021/06/10 03:05:31;;;;;;;1.67;1.42;;;;;;;15.91;63.51;101094.88;5004548;28;20092;-74
2021/06/10 03:07:56;;;;;;;2.50;1.52;;;;;;;15.91;64.02;101108.03;5011138;28;20056;-74
2021/06/10 03:10:24;;;;;;;2.60;2.00;;;;;;;15.90;64.37;101107.19;5024259;28;20025;-74
2021/06/10 03:12:50;;;;;;;2.90;1.67;;;;;;;15.95;64.29;101106.28;5005255;28;20025;-74
2021/06/10 03:15:15;;;;;;;2.13;1.63;;;;;;;15.92;64.69;101098.50;5026157;28;20037;-74
2021/06/10 03:17:41;;;;;;;3.22;2.35;;;;;;;15.88;64.73;101105.88;5009198;28;20021;-74
2021/06/10 03:20:07;;;;;;;3.22;1.90;;;;;;;15.90;65.27;101121.22;4999715;28;20042;-74
2021/06/10 03:22:33;;;;;;;2.38;2.10;;;;;;;15.88;65.55;101117.91;5013122;28;20035;-74
2021/06/10 03:24:58;;;;;;;2.03;1.77;;;;;;;15.93;64.75;101120.56;5024157;28;20025;-74
2021/06/10 03:27:24;;;;;;;2.28;1.60;;;;;;;15.91;65.00;101122.03;5029535;28;20064;-74
2021/06/10 03:29:49;;;;;;;2.72;1.70;;;;;;;15.91;64.87;101119.22;5033081;28;20032;-74
2021/06/10 03:32:15;;;;;;;2.38;1.88;;;;;;;15.90;65.26;101117.59;4994187;28;20037;-74
2021/06/10 03:34:41;;;;;;;2.20;2.00;;;;;;;15.93;65.11;101114.16;5043349;28;20033;-74
2021/06/10 03:37:07;;;;;;;2.20;1.60;;;;;;;15.95;65.23;101112.69;5007557;28;20037;-74
2021/06/10 03:39:32;;;;;;;3.50;1.48;;;;;;;15.95;66.03;101111.88;5015566;28;20102;-74
2021/06/10 03:41:59;;;;;;;2.33;1.70;;;;;;;15.96;65.59;101107.91;5031656;28;20029;-74
2021/06/10 03:44:24;;;;;;;1.48;1.38;;;;;;;15.94;64.89;101105.44;5025470;28;20030;-74
2021/06/10 03:46:50;;;;;;;2.70;1.63;;;;;;;15.94;65.03;101099.03;5022090;28;20036;-74
2021/06/10 03:49:15;;;;;;;2.15;1.60;;;;;;;15.95;64.88;101103.47;5044997;28;20095;-74
2021/06/10 03:51:41;;;;;;;2.88;1.60;;;;;;;15.95;65.04;101095.88;5016199;28;20050;-74
2021/06/10 03:54:07;;;;;;;1.98;1.40;;;;;;;15.94;65.13;101094.25;5000900;28;20033;-74
2021/06/10 03:56:33;;;;;;;1.77;1.50;;;;;;;15.93;65.01;101102.94;5026093;28;20504;-74
2021/06/10 03:58:59;;;;;;;2.58;1.70;;;;;;;15.93;65.26;101105.75;5009386;28;20061;-74
2021/06/10 04:01:24;;;;;;;1.77;1.60;;;;;;;15.94;65.12;101111.03;5027496;28;20078;-74
2021/06/10 04:03:50;;;;;;;3.17;1.92;;;;;;;15.95;65.87;101111.88;5036682;28;20085;-74
2021/06/10 04:06:17;;;;;;;2.08;1.85;;;;;;;15.91;65.98;101108.88;5033890;28;20033;-74
2021/06/10 04:08:43;;;;;;;3.33;2.20;;;;;;;15.89;66.28;101107.53;5028204;28;20044;-74
2021/06/10 04:11:08;;;;;;;2.03;1.85;;;;;;;15.84;66.21;101102.88;5027397;28;20423;-74
2021/06/10 04:13:34;;;;;;;2.25;2.05;;;;;;;15.84;66.39;101102.88;5047353;28;20418;-73
2021/06/10 04:15:59;;;;;;;4.20;2.25;;;;;;;15.82;66.93;101108.81;5039699;28;20090;-73
2021/06/10 04:18:25;;;;;;;2.65;2.08;;;;;;;15.83;66.95;101107.66;5049509;28;20482;-74
2021/06/10 04:20:51;;;;;;;2.35;1.98;;;;;;;15.83;66.96;101104.03;5030267;28;20025;-74
2021/06/10 04:23:17;;;;;;;2.28;1.77;;;;;;;15.82;66.33;101103.19;5039446;28;20037;-74
2021/06/10 04:25:43;;;;;;;2.28;1.85;;;;;;;15.86;66.69;101098.63;5033696;28;20026;-74
2021/06/10 04:28:09;;;;;;;2.80;2.00;;;;;;;15.89;66.20;101107.53;5030400;28;20029;-74
2021/06/10 04:30:34;;;;;;;2.28;2.05;;;;;;;15.85;66.77;101108.16;5048840;28;20040;-74
2021/06/10 04:33:00;;;;;;;2.45;2.20;;;;;;;15.84;66.52;101112.09;5048136;28;20036;-74
2021/06/10 04:35:25;;;;;;;2.10;1.70;;;;;;;15.86;66.62;101115.41;5048948;28;20086;-74
2021/06/10 04:37:51;;;;;;;2.63;2.10;;;;;;;15.92;66.44;101123.72;5052628;28;20033;-74
2021/06/10 04:40:17;;;;;;;3.28;2.40;;;;;;;15.92;67.60;101120.91;5040119;28;20048;-74
2021/06/10 04:42:43;;;;;;;4.43;2.40;;;;;;;15.93;67.06;101120.56;5036488;28;20041;-74
2021/06/10 04:45:10;;;;;;;2.70;2.50;;;;;;;15.91;67.87;101116.44;5030301;28;20091;-74
2021/06/10 04:47:35;;;;;;;3.25;2.60;;;;;;;15.94;67.31;101121.44;5023596;28;20039;-74
2021/06/10 04:50:01;;;;;;;3.13;2.60;;;;;;;15.92;67.70;101109.69;5011955;28;20034;-74
2021/06/10 04:52:27;;;;;;;4.20;2.33;;;;;;;15.93;67.25;101109.38;5027154;28;20049;-74
2021/06/10 04:54:52;;;;;;;2.83;2.60;;;;;;;15.91;67.51;101106.06;5040382;28;20036;-74
2021/06/10 04:57:18;;;;;;;4.82;2.92;;;;;;;15.94;67.63;101111.03;5014596;28;20022;-74
2021/06/10 04:59:43;;;;;;;3.20;2.55;;;;;;;15.97;67.54;101109.59;5042158;28;20037;-74
2021/06/10 05:02:09;;;;;;;2.80;2.50;;;;;;;15.98;67.27;101111.22;5045728;28;20032;-74
2021/06/10 05:04:35;;;;;;;3.50;2.60;;;;;;;16.00;67.66;101112.56;5029077;28;20022;-74
2021/06/10 05:07:00;;;;;;;2.60;2.40;;;;;;;16.04;67.73;101121.16;5008430;28;20439;-74
2021/06/10 05:09:26;;;;;;;2.97;2.67;;;;;;;16.03;68.01;101120.34;5024943;28;20462;-72
2021/06/10 05:11:51;;;;;;;3.47;2.40;;;;;;;16.04;67.52;101116.38;5043057;28;20040;-72
2021/06/10 05:14:18;;;;;;;3.03;2.47;;;;;;;16.08;68.15;101122.22;5042049;28;20040;-72
2021/06/10 05:16:47;;;;;;;3.00;2.70;;;;;;;16.10;68.52;101122.69;5044171;28;20108;-76
2021/06/10 05:19:13;;;;;;;2.67;2.40;;;;;;;16.13;67.88;101124.03;5013101;28;20033;-72
2021/06/10 05:21:38;;;;;;;3.60;2.90;;;;;;;16.14;67.76;101120.13;5019829;28;20083;-73
2021/06/10 05:24:06;;;;;;;4.68;2.78;;;;;;;16.17;68.25;101114.69;5049242;28;20029;-72
2021/06/10 05:26:31;;;;;;;2.80;2.50;;;;;;;16.22;67.80;101123.00;5044226;28;20037;-73
2021/06/10 05:28:56;;;;;;;3.33;2.78;;;;;;;16.25;67.88;101124.34;5039803;28;20436;-73
2021/06/10 05:31:23;;;;;;;2.92;2.60;;;;;;;16.27;68.02;101120.06;5022675;28;20540;-73
2021/06/10 05:33:50;;;;;;;4.10;2.80;;;;;;;16.29;68.75;101116.94;5027182;28;20507;-73
2021/06/10 05:36:16;;;;;;;3.85;3.33;;;;;;;16.31;68.19;101109.84;5029373;28;20482;-73
2021/06/10 05:38:41;;;;;;;3.17;2.88;;;;;;;16.37;67.96;101118.16;5041061;28;20040;-72
2021/06/10 05:41:07;;;;;;;4.22;2.50;;;;;;;16.39;67.93;101122.28;5047980;28;20040;-72
2021/06/10 05:43:34;;;;;;;3.80;3.15;;;;;;;16.43;68.20;101119.66;5029425;28;20029;-73
2021/06/10 05:46:00;;;;;;;3.47;3.05;;;;;;;16.44;68.38;101119.38;5037181;28;20385;-73
2021/06/10 05:48:25;;;;;;;4.78;3.63;;;;;;;16.44;70.60;101118.53;5042025;28;20032;-73
2021/06/10 05:50:51;;;;;;;4.20;3.75;;;;;;;16.45;70.87;101121.00;5057066;28;20367;-73
2021/06/10 05:53:16;;;;;;;4.30;3.47;;;;;;;16.51;68.99;101116.09;5018559;28;20095;-72
2021/06/10 05:55:43;;;;;;;5.63;3.40;;;;;;;16.53;69.46;101113.81;5027136;28;20398;-73
2021/06/10 05:58:08;;;;;;;6.47;4.90;;;;;;;16.47;72.19;101110.31;5057089;28;20033;-72
2021/06/10 06:00:34;;;;;;;5.90;4.93;;;;;;;16.49;71.60;101113.63;5001218;28;20025;-73
2021/06/10 06:03:03;;;;;;;4.35;3.80;;;;;;;16.47;70.53;101104.69;5010386;28;20064;-72
2021/06/10 06:05:29;;;;;;;5.68;5.03;;;;;;;16.51;72.80;101114.13;5041799;28;20033;-72
2021/06/10 06:07:55;;;;;;;8.02;6.47;;;;;;;16.49;71.74;101098.75;5022717;28;20045;-72
2021/06/10 06:10:21;;;;;;;6.13;4.78;;;;;;;16.53;72.29;101099.78;5025748;28;20083;-74
2021/06/10 06:12:49;;;;;;;4.60;3.55;;;;;;;16.59;70.12;101098.50;5013557;28;20055;-74
2021/06/10 06:15:15;;;;;;;7.20;5.50;;;;;;;16.59;72.90;101098.50;5033208;28;20113;-74
2021/06/10 06:17:42;;;;;;;5.68;4.68;;;;;;;16.59;72.59;101087.28;5026028;28;20029;-74
2021/06/10 06:20:08;;;;;;;7.88;5.72;;;;;;;16.63;73.43;101088.31;5005660;28;20029;-75
2021/06/10 06:22:34;;;;;;;4.72;3.83;;;;;;;16.66;70.95;101096.09;4994238;28;20037;-74
2021/06/10 06:24:59;;;;;;;3.70;3.40;;;;;;;16.73;69.97;101099.25;5047262;28;20029;-74
2021/06/10 06:27:25;;;;;;;5.72;3.97;;;;;;;16.78;69.80;101101.13;5009251;28;20048;-74
2021/06/10 06:29:50;;;;;;;3.50;3.20;;;;;;;16.83;70.48;101105.78;5029292;28;20374;-72
2021/06/10 06:32:16;;;;;;;5.68;4.85;;;;;;;16.85;70.59;101115.50;5021714;28;20025;-74
2021/06/10 06:34:41;;;;;;;6.80;5.00;;;;;;;16.89;72.57;101113.72;5048032;28;20029;-74
2021/06/10 06:37:07;;;;;;;5.65;4.28;;;;;;;16.94;73.19;101116.41;5008562;28;20033;-73
2021/06/10 06:39:32;;;;;;;8.38;6.70;;;;;;;16.98;74.73;101110.97;5033180;28;20029;-74
2021/06/10 06:41:58;;;;;;;9.15;6.18;;;;;;;17.02;74.49;101106.38;5050014;28;20040;-74
2021/06/10 06:44:23;;;;;;;7.85;5.35;;;;;;;17.05;74.47;101111.34;5003381;28;20032;-74
2021/06/10 06:46:49;;;;;;;5.65;5.00;;;;;;;17.11;74.46;101107.22;5023351;28;20153;-74
2021/06/10 06:49:14;;;;;;;7.20;5.38;;;;;;;17.14;74.37;101106.56;5024578;28;20029;-77
2021/06/10 06:51:40;;;;;;;11.35;6.57;;;;;;;17.10;76.57;101105.56;5020832;28;20034;-74
2021/06/10 06:54:06;;;;;;;7.80;6.28;;;;;;;17.16;75.43;101129.53;5049508;28;20030;-77
2021/06/10 06:56:31;;;;;;;8.73;5.07;;;;;;;17.26;73.83;101138.81;5045237;28;20086;-74
2021/06/10 06:58:58;;;;;;;6.97;4.53;;;;;;;17.34;72.73;101135.22;5024289;28;20099;-74
2021/06/10 07:01:24;;;;;;;6.30;5.40;;;;;;;17.40;73.35;101131.94;5046973;28;20029;-75
2021/06/10 07:03:50;;;;;;;6.63;4.88;;;;;;;17.47;73.55;101134.28;5040037;28;20041;-75
2021/06/10 07:06:15;;;;;;;5.45;4.38;;;;;;;17.54;72.21;101143.03;5027531;28;20032;-74
2021/06/10 07:08:41;;;;;;;7.68;5.53;;;;;;;17.62;72.90;101142.25;5039576;28;20074;-74
2021/06/10 07:11:06;;;;;;;9.57;5.50;;;;;;;17.68;73.99;101142.09;5021064;28;20026;-74
2021/06/10 07:13:32;;;;;;;7.20;4.90;;;;;;;17.76;73.18;101135.66;5029211;28;20033;-74
2021/06/10 07:15:57;;;;;;;5.00;3.80;;;;;;;17.84;72.21;101137.69;5028646;28;20493;-74
2021/06/10 07:18:23;;;;;;;4.32;3.92;;;;;;;17.94;71.90;101145.81;5023848;28;20057;-74
2021/06/10 07:20:48;;;;;;;6.05;3.08;;;;;;;18.03;70.28;101145.84;5029465;28;20041;-74
2021/06/10 07:23:14;;;;;;;5.70;3.85;;;;;;;18.12;70.76;101148.66;5042036;28;20037;-74
2021/06/10 07:25:40;;;;;;;2.80;2.50;;;;;;;18.23;69.18;101155.59;5031615;28;20033;-74
2021/06/10 07:28:05;;;;;;;6.97;5.20;;;;;;;18.35;73.23;101149.31;5046910;28;20416;-75
2021/06/10 07:30:31;;;;;;;4.85;3.70;;;;;;;18.45;69.59;101163.03;5021280;28;20025;-75
2021/06/10 07:32:57;;;;;;;4.38;3.47;;;;;;;18.57;69.36;101160.38;5003159;28;20033;-74
2021/06/10 07:35:23;;;;;;;3.92;2.80;;;;;;;18.71;68.86;101160.19;5025182;28;20105;-74
2021/06/10 07:37:50;;;;;;;3.30;2.88;;;;;;;18.89;68.96;101167.47;5008744;28;20045;-74
2021/06/10 07:40:16;;;;;;;3.33;2.88;;;;;;;19.07;68.38;101170.25;5034182;28;20040;-74
2021/06/10 07:42:42;;;;;;;4.95;3.42;;;;;;;19.25;68.48;101174.66;5030108;28;20025;-75
2021/06/10 07:45:08;;;;;;;5.15;3.67;;;;;;;19.42;68.50;101174.59;5034186;28;20079;-74
2021/06/10 07:47:34;;;;;;;7.10;5.30;;;;;;;19.62;70.37;101175.00;5045069;28;20028;-74
2021/06/10 07:49:59;;;;;;;4.93;4.20;;;;;;;19.77;69.42;101165.97;5042368;28;20107;-74
2021/06/10 07:52:25;;;;;;;3.55;2.97;;;;;;;19.94;68.11;101165.03;5044077;28;20060;-74
2021/06/10 07:54:50;;;;;;;4.20;3.38;;;;;;;20.15;68.86;101155.78;5039925;28;20050;-74
2021/06/10 07:57:16;;;;;;;9.27;3.85;;;;;;;20.41;69.01;101147.09;5039900;28;20022;-74
2021/06/10 07:59:41;;;;;;;4.95;3.60;;;;;;;20.63;69.38;101145.94;5020119;28;20026;-74
2021/06/10 08:02:09;;;;;;;5.88;3.55;;;;;;;20.87;69.01;101148.84;5039524;28;20030;-74
2021/06/10 08:04:35;;;;;;;5.22;3.13;;;;;;;21.06;68.66;101147.44;5024861;28;20030;-74
2021/06/10 08:07:00;;;;;;;4.35;3.08;;;;;;;21.22;68.44;101148.44;5044071;28;20496;-74
2021/06/10 08:09:26;;;;;;;4.43;3.10;;;;;;;21.37;67.10;101147.78;5045650;28;20040;-75
2021/06/10 08:11:53;;;;;;;4.28;2.95;;;;;;;21.52;67.30;101146.25;5043373;28;20040;-74
2021/06/10 08:14:18;;;;;;;4.85;4.00;;;;;;;21.58;68.39;101150.47;5041437;28;20057;-75
2021/06/10 08:16:44;;;;;;;3.97;3.50;;;;;;;21.76;67.83;101145.41;5046000;28;20036;-75
2021/06/10 08:19:10;;;;;;;5.75;3.90;;;;;;;21.89;67.66;101143.38;5046159;28;20032;-74
2021/06/10 08:21:35;;;;;;;4.65;3.70;;;;;;;22.05;67.17;101146.31;5039720;28;20034;-75
2021/06/10 08:24:01;;;;;;;4.93;3.55;;;;;;;22.17;66.55;101156.78;5038007;28;20044;-75
2021/06/10 08:26:26;;;;;;;3.72;2.83;;;;;;;22.40;65.91;101151.41;5027567;28;20055;-74
2021/06/10 08:28:52;;;;;;;3.72;3.00;;;;;;;22.53;65.38;101151.00;5021327;28;20095;-74
2021/06/10 08:31:17;;;;;;;7.80;4.00;;;;;;;22.67;65.32;101158.28;5012355;28;20057;-71
2021/06/10 08:33:43;;;;;;;4.03;3.35;;;;;;;22.81;65.35;101147.34;5007971;28;20029;-72
2021/06/10 08:36:09;;;;;;;4.72;4.00;;;;;;;23.01;65.71;101148.31;5028568;28;20040;-72
2021/06/10 08:38:35;;;;;;;6.18;3.97;;;;;;;23.24;64.96;101148.53;5028090;28;20024;-72
2021/06/10 08:41:01;;;;;;;5.88;4.68;;;;;;;23.30;64.95;101151.94;5022674;28;20033;-72
2021/06/10 08:43:26;;;;;;;5.68;4.10;;;;;;;23.47;64.22;101148.72;5050026;28;20037;-72
2021/06/10 08:46:06;;;;;;;6.50;4.15;;;;;;;23.70;63.59;101159.38;5012065;28;20029;-73
2021/06/10 08:48:35;;;;;;;5.68;4.45;;;;;;;23.73;62.54;101165.16;5028859;28;20025;-72
2021/06/10 08:51:01;;;;;;;5.63;4.50;;;;;;;23.94;61.69;101149.88;5036427;28;20040;-72
2021/06/10 08:53:27;;;;;;;6.43;4.70;;;;;;;23.94;62.16;101153.53;5024643;28;20053;-72
2021/06/10 08:55:55;;;;;;;6.60;4.40;;;;;;;24.01;61.57;101155.69;5027477;28;20029;-72
2021/06/10 08:58:22;;;;;;;4.78;4.20;;;;;;;24.30;60.99;101146.63;5032633;28;20021;-72
2021/06/10 09:00:47;;;;;;;4.63;3.60;;;;;;;24.48;60.09;101146.22;5023446;28;20053;-72
2021/06/10 09:03:13;;;;;;;4.53;3.13;;;;;;;24.60;61.39;101142.38;5035365;28;20385;-72
2021/06/10 09:05:39;;;;;;;5.55;3.00;;;;;;;24.80;60.50;101131.84;5011476;28;20040;-72
2021/06/10 09:08:06;;;;;;;3.35;2.50;;;;;;;24.67;59.63;101143.38;5007972;28;20036;-72
2021/06/10 09:10:34;;;;;;;2.47;1.83;;;;;;;24.90;59.63;101131.22;5042508;28;20083;-72
2021/06/10 09:13:01;;;;;;;3.08;1.80;;;;;;;24.88;58.35;101130.78;5040286;28;20053;-72
2021/06/10 09:15:28;;;;;;;2.92;1.73;;;;;;;24.94;57.94;101137.81;5022408;28;20493;-73
2021/06/10 09:18:00;;;;;;;5.07;1.65;;;;;;;24.97;60.24;101134.19;5028669;28;20032;-72
2021/06/10 09:20:27;;;;;;;2.25;1.63;;;;;;;24.96;58.54;101143.91;5040244;28;20115;-72
2021/06/10 09:23:12;;;;;;;3.47;1.58;;;;;;;24.87;58.08;101137.66;5027435;28;20040;-72
2021/06/10 09:25:38;;;;;;;1.85;1.10;;;;;;;24.94;57.29;101140.63;5008569;28;20233;-72
2021/06/10 09:28:04;;;;;;;2.45;1.17;;;;;;;24.93;57.73;101145.50;5032497;28;20053;-72
2021/06/10 09:30:35;;;;;;;2.55;1.30;;;;;;;24.94;57.85;101140.63;5052876;28;20024;-72
2021/06/10 09:33:01;;;;;;;3.17;1.20;;;;;;;25.02;58.35;101147.25;5031113;28;20489;-76
2021/06/10 09:35:32;;;;;;;2.10;1.58;;;;;;;25.07;57.50;101159.13;5025181;28;20079;-73
2021/06/10 09:38:01;;;;;;;2.60;1.55;;;;;;;25.30;57.41;101156.34;5036450;28;20043;-73
2021/06/10 09:40:28;;;;;;;1.92;1.45;;;;;;;25.22;57.91;101156.59;5044316;28;20435;-73
2021/06/10 09:42:54;;;;;;;1.40;1.30;;;;;;;25.24;57.35;101160.72;5007957;28;20044;-72
2021/06/10 09:45:21;;;;;;;2.47;1.63;;;;;;;25.12;56.87;101153.16;5030488;28;20025;-72
2021/06/10 09:47:53;;;;;;;2.10;1.40;;;;;;;25.17;56.95;101155.72;5022749;28;20084;-73
2021/06/10 09:50:24;;;;;;;3.92;1.60;;;;;;;25.17;56.93;101155.72;5023860;28;20402;-73
2021/06/10 09:52:51;;;;;;;2.22;1.23;;;;;;;25.24;57.00;101159.88;5022067;28;20092;-75
2021/06/10 09:55:39;;;;;;;2.80;1.20;;;;;;;25.37;56.77;101153.63;5008240;28;20412;-76
2021/06/10 09:58:14;;;;;;;2.25;1.30;;;;;;;25.48;56.38;101161.50;5022881;28;20037;-75
2021/06/10 10:00:49;;;;;;;1.98;1.45;;;;;;;25.60;56.15;101158.47;5039602;28;20033;-75
2021/06/10 10:03:30;;;;;;;2.05;1.20;;;;;;;25.74;55.82;101160.72;5036561;28;20051;-75
2021/06/10 10:06:01;;;;;;;1.77;1.17;;;;;;;25.84;55.47;101160.09;5050575;28;20072;-76
2021/06/10 10:08:28;;;;;;;2.70;1.42;;;;;;;25.78;56.03;101155.91;5011342;28;20035;-76
2021/06/10 10:10:55;;;;;;;1.63;1.10;;;;;;;25.85;55.47;101156.03;5011760;28;20071;-76
2021/06/10 10:13:21;;;;;;;2.22;1.50;;;;;;;25.92;56.13;101144.78;5041011;28;20449;-76
2021/06/10 10:15:47;;;;;;;1.95;1.50;;;;;;;26.01;55.43;101145.31;5039598;28;20085;-76
2021/06/10 10:18:12;;;;;;;1.95;1.30;;;;;;;26.12;55.09;101154.00;5020610;28;20346;-75
2021/06/10 10:20:39;;;;;;;2.40;1.20;;;;;;;26.20;54.82;101149.25;5033744;28;20116;-76
2021/06/10 10:23:05;;;;;;;2.03;1.00;;;;;;;26.26;54.92;101148.50;5005065;28;20398;-76
2021/06/10 10:25:31;;;;;;;2.08;1.60;;;;;;;26.29;55.10;101150.56;5027128;28;20030;-77
2021/06/10 10:27:57;;;;;;;1.48;1.25;;;;;;;26.44;54.44;101148.75;5022996;28;20082;-74
2021/06/10 10:30:23;;;;;;;2.33;1.60;;;;;;;26.57;54.22;101139.97;5018848;28;20542;-74
2021/06/10 10:32:48;;;;;;;1.77;1.50;;;;;;;26.66;54.07;101149.03;5025027;28;20088;-74
2021/06/10 10:35:20;;;;;;;2.95;1.30;;;;;;;26.79;53.62;101141.84;5039889;28;20026;-74
2021/06/10 10:37:45;;;;;;;2.88;1.80;;;;;;;26.90;53.47;101147.69;5035578;28;20057;-74
2021/06/10 10:40:40;;;;;;;4.05;1.88;;;;;;;26.92;52.71;101146.06;5032045;28;20032;-77
2021/06/10 10:43:09;;;;;;;4.32;1.65;;;;;;;26.98;53.46;101142.88;5036009;28;20029;-77
2021/06/10 10:45:35;;;;;;;2.05;1.50;;;;;;;27.11;52.51;101147.91;5030288;28;20057;-77
2021/06/10 10:48:03;;;;;;;2.17;1.88;;;;;;;27.03;53.54;101148.22;5041295;28;20055;-77
2021/06/10 10:50:40;;;;;;;2.92;1.60;;;;;;;27.23;53.43;101141.13;5020657;28;20041;-77
2021/06/10 10:53:19;;;;;;;1.98;1.55;;;;;;;27.39;51.69;101140.84;5036520;28;20501;-77
2021/06/10 10:55:45;;;;;;;2.28;1.45;;;;;;;27.56;52.00;101142.22;5029765;28;20401;-78
2021/06/10 10:58:20;;;;;;;6.63;1.67;;;;;;;27.81;52.29;101140.41;5033207;28;20029;-78
2021/06/10 11:00:46;;;;;;;1.95;1.27;;;;;;;28.02;51.42;101144.59;5019690;28;20096;-77
2021/06/10 11:03:21;;;;;;;1.85;1.30;;;;;;;28.23;50.69;101143.91;5023086;28;20039;-77
2021/06/10 11:05:47;;;;;;;2.72;1.48;;;;;;;28.37;50.45;101143.16;5015863;28;20032;-77
2021/06/10 11:08:12;;;;;;;2.40;1.30;;;;;;;28.52;50.58;101134.25;5031960;28;20037;-72
2021/06/10 11:10:50;;;;;;;2.03;1.20;;;;;;;28.66;50.38;101127.78;5007832;28;20056;-73
2021/06/10 11:13:16;;;;;;;1.40;1.30;;;;;;;28.83;50.01;101125.38;5031301;28;20029;-73
2021/06/10 11:15:42;;;;;;;2.53;1.13;;;;;;;29.01;49.51;101123.38;5014153;28;20056;-73
2021/06/10 11:18:08;;;;;;;2.22;1.38;;;;;;;29.17;49.02;101123.84;5025388;28;20037;-73
2021/06/10 11:20:36;;;;;;;1.55;1.20;;;;;;;29.43;48.91;101118.94;5032752;28;20029;-72
2021/06/10 11:23:28;;;;;;;3.67;1.25;;;;;;;29.75;48.04;101109.50;5042032;28;20057;-73